Hawthorne, Nevada
Current Conditions -  °F | °C
As of 1:52 AM on Saturday 22 Nov 2014 (Local Time) from KBAN Reporting Station
Overcast Overcast  
Wind Chill: 42°   Ceiling: 4200
Heat Index: 47°   Visibility: NA
Dew Point: 31°   Wind: 10mph
Humidity: 54%   Direction: 210°SSW
Pressure: 30.09"   Gusts: NA
Location:  38.52°N, 118.63°W
Report Text: KBAN 220952Z AUTO 21009KT OVC042 08/M01 A3009 RMK AO2 SLP146 T00831006 $
Loading
Personal Weather Stations






























Interactive Weather Map New forecast layout! Learn more

10-Day Weather Forecast

Advertisements
Track Severe Weather on mobile